CheckWX is a tool to help pilots better visualize weather data.  It is not intended as a substitute for an official pre-flight weather briefing.

09:57:51 UTC

FDMS METAR
Matsapha Airport
Manzini, Swaziland
Current

3 hours ago

FDMS 210700Z VRB02KT 9999 FEW020 BKN030 23/21 Q1018 NOSIG
Observed
Mar-21 @ 07:00 UTC
Wind
  • Variable at 2 KTS
Visibility
10,000+ meters
Flight Rules
MVFR
Cloud Levels
  • Few at 2,000' AGL
  • Broken at 3,000' AGL
Temperature
23°C / 73°F
Dewpoint
21°C / 70°F
Humidity
89%
Altimeter
30.06" Hg
Pressure
1017.92 hPa
Previous

20 hours ago

FDMS 201400Z 03010KT 9999 FEW040TCU 30/21 Q1010 NOSIG
Observed
Mar-20 @ 14:00 UTC
Wind
  • 030° at 10 KTS
Visibility
10,000+ meters
Flight Rules
VFR
Cloud Levels
  • Few at 4,000' AGL
Temperature
30°C / 86°F
Dewpoint
21°C / 70°F
Humidity
59%
Altimeter
29.82" Hg
Pressure
1009.92 hPa
Previous

24 hours ago

FDMS 201000Z 08008KT 9999 FEW035 30/20 Q1012 NOSIG
Observed
Mar-20 @ 10:00 UTC
Wind
  • 080° at 8 KTS
Visibility
10,000+ meters
Flight Rules
VFR
Cloud Levels
  • Few at 3,500' AGL
Temperature
30°C / 86°F
Dewpoint
20°C / 68°F
Humidity
55%
Altimeter
29.88" Hg
Pressure
1011.92 hPa